createdAt,value
2023-03-06T00:00:48.145Z,1.63
2023-03-06T00:01:48.112Z,1.63
2023-03-06T00:02:48.106Z,1.63
2023-03-06T00:03:48.174Z,1.61
2023-03-06T00:04:48.089Z,1.61
2023-03-06T00:05:48.230Z,1.61
2023-03-06T00:06:48.071Z,1.57
2023-03-06T00:07:48.069Z,1.57
2023-03-06T00:08:48.050Z,1.56
2023-03-06T00:09:48.040Z,1.60
2023-03-06T00:10:48.085Z,1.61
2023-03-06T00:11:48.129Z,1.61
2023-03-06T00:12:48.022Z,1.60
2023-03-06T00:13:47.996Z,1.60
2023-03-06T00:14:48.020Z,1.60
2023-03-06T00:15:47.983Z,1.61
2023-03-06T00:16:47.971Z,1.61
2023-03-06T00:17:47.986Z,1.61
2023-03-06T00:18:47.950Z,1.61
2023-03-06T00:19:47.948Z,1.60
2023-03-06T00:20:47.937Z,1.60
2023-03-06T00:21:47.931Z,1.57
2023-03-06T00:22:47.920Z,1.57
2023-03-06T00:23:47.937Z,1.57
2023-03-06T00:24:47.893Z,1.56
2023-03-06T00:25:47.890Z,1.57
2023-03-06T00:26:47.881Z,1.57
2023-03-06T00:27:47.927Z,1.56
2023-03-06T00:28:47.857Z,1.57
2023-03-06T00:29:47.875Z,1.60
2023-03-06T00:30:47.839Z,1.56
2023-03-06T00:31:47.963Z,1.57
2023-03-06T00:32:47.827Z,1.60
2023-03-06T00:33:47.797Z,1.57
2023-03-06T00:34:47.785Z,1.60
2023-03-06T00:35:47.837Z,1.61
2023-03-06T00:36:47.778Z,1.63
2023-03-06T00:37:47.762Z,1.61
2023-03-06T00:38:47.746Z,1.61
2023-03-06T00:39:47.748Z,1.63
2023-03-06T00:40:47.730Z,1.63
2023-03-06T00:41:47.747Z,1.63
2023-03-06T00:42:47.719Z,1.63
2023-03-06T00:43:47.723Z,1.63
2023-03-06T00:44:47.688Z,1.64
2023-03-06T00:45:47.760Z,1.63
2023-03-06T00:46:47.677Z,1.64
2023-03-06T00:47:47.707Z,1.61
2023-03-06T00:48:47.645Z,1.60
2023-03-06T00:49:47.669Z,1.57
2023-03-06T00:50:47.626Z,1.57
2023-03-06T00:51:47.642Z,1.57
2023-03-06T00:52:47.607Z,1.56
2023-03-06T00:53:47.601Z,1.56
2023-03-06T00:54:47.604Z,1.57
2023-03-06T00:55:47.582Z,1.60
2023-03-06T00:56:47.582Z,1.56
2023-03-06T00:57:47.578Z,1.54
2023-03-06T00:58:47.609Z,1.53
2023-03-06T00:59:47.535Z,1.53
2023-03-06T01:00:47.546Z,1.53
2023-03-06T01:01:47.544Z,1.50
2023-03-06T01:02:47.531Z,1.52
2023-03-06T01:03:47.505Z,1.49
2023-03-06T01:04:47.491Z,1.47
2023-03-06T01:05:47.475Z,1.47
2023-03-06T01:06:47.469Z,1.47
2023-03-06T01:07:47.473Z,1.47
2023-03-06T01:08:47.454Z,1.46
2023-03-06T01:09:47.448Z,1.46
2023-03-06T01:10:47.449Z,1.47
2023-03-06T01:11:47.442Z,1.46
2023-03-06T01:12:47.422Z,1.46
2023-03-06T01:13:47.418Z,1.44
2023-03-06T01:14:47.387Z,1.44
2023-03-06T01:15:47.378Z,1.44
2023-03-06T01:16:47.418Z,1.44
2023-03-06T01:17:47.358Z,1.43
2023-03-06T01:18:47.367Z,1.43
2023-03-06T01:19:47.335Z,1.44
2023-03-06T01:20:47.333Z,1.42
2023-03-06T01:21:47.341Z,1.42
2023-03-06T01:22:47.310Z,1.39
2023-03-06T01:23:47.291Z,1.42
2023-03-06T01:24:47.299Z,1.38
2023-03-06T01:25:47.297Z,1.39
2023-03-06T01:26:47.264Z,1.42
2023-03-06T01:27:47.256Z,1.42
2023-03-06T01:28:47.255Z,1.42
2023-03-06T01:29:47.253Z,1.44
2023-03-06T01:30:47.225Z,1.46
2023-03-06T01:31:47.270Z,1.46
2023-03-06T01:32:47.209Z,1.44
2023-03-06T01:33:47.196Z,1.46
2023-03-06T01:34:47.211Z,1.49
2023-03-06T01:35:47.285Z,1.49
2023-03-06T01:36:47.172Z,1.50
2023-03-06T01:37:47.157Z,1.50
2023-03-06T01:38:47.143Z,1.52
2023-03-06T01:39:47.148Z,1.52
2023-03-06T01:40:47.156Z,1.54
2023-03-06T01:41:47.128Z,1.54
2023-03-06T01:42:47.120Z,1.53
2023-03-06T01:43:47.102Z,1.56
2023-03-06T01:44:47.090Z,1.54
2023-03-06T01:45:47.122Z,1.56
2023-03-06T01:46:47.093Z,1.56
2023-03-06T01:47:47.069Z,1.54
2023-03-06T01:48:47.059Z,1.57
2023-03-06T01:49:47.043Z,1.61
2023-03-06T01:50:47.051Z,1.61
2023-03-06T01:51:47.040Z,1.64
2023-03-06T01:52:47.034Z,1.61
2023-03-06T01:53:47.004Z,1.61
2023-03-06T01:54:46.989Z,1.60
2023-03-06T01:55:46.986Z,1.61
2023-03-06T01:56:46.979Z,1.63
2023-03-06T01:57:46.986Z,1.64
2023-03-06T01:58:46.969Z,1.64
2023-03-06T01:59:46.945Z,1.65
2023-03-06T02:00:46.951Z,1.65
2023-03-06T02:01:46.928Z,1.67
2023-03-06T02:02:46.911Z,1.68
2023-03-06T02:03:46.920Z,1.68
2023-03-06T02:04:46.903Z,1.64
2023-03-06T02:05:46.881Z,1.67
2023-03-06T02:06:46.878Z,1.65
2023-03-06T02:07:46.917Z,1.67
2023-03-06T02:08:46.857Z,1.68
2023-03-06T02:09:46.860Z,1.68
2023-03-06T02:10:46.837Z,1.70
2023-03-06T02:11:46.905Z,1.70
2023-03-06T02:12:46.816Z,1.68
2023-03-06T02:13:46.805Z,1.70
2023-03-06T02:14:46.822Z,1.70
2023-03-06T02:15:46.782Z,1.67
2023-03-06T02:16:46.875Z,1.67
2023-03-06T02:17:46.761Z,1.67
2023-03-06T02:18:46.750Z,1.67
2023-03-06T02:19:46.752Z,1.67
2023-03-06T02:20:46.759Z,1.68
2023-03-06T02:21:46.742Z,1.68
2023-03-06T02:22:46.717Z,1.67
2023-03-06T02:23:46.709Z,1.68
2023-03-06T02:24:46.705Z,1.68
2023-03-06T02:25:46.688Z,1.67
2023-03-06T02:26:46.680Z,1.64
2023-03-06T02:27:46.691Z,1.61
2023-03-06T02:28:46.670Z,1.61
2023-03-06T02:29:46.656Z,1.60
2023-03-06T02:30:46.674Z,1.60
2023-03-06T02:31:46.629Z,1.57
2023-03-06T02:32:46.641Z,1.57
2023-03-06T02:33:46.615Z,1.57
2023-03-06T02:34:46.601Z,1.60
2023-03-06T02:35:46.590Z,1.60
2023-03-06T02:36:46.586Z,1.57
2023-03-06T02:37:46.566Z,1.60
2023-03-06T02:38:46.584Z,1.60
2023-03-06T02:39:46.556Z,1.63
2023-03-06T02:40:46.547Z,1.64
2023-03-06T02:41:46.532Z,1.64
2023-03-06T02:42:46.526Z,1.65
2023-03-06T02:43:46.512Z,1.67
2023-03-06T02:44:46.512Z,1.67
2023-03-06T02:45:46.546Z,1.67
2023-03-06T02:46:46.502Z,1.68
2023-03-06T02:47:46.466Z,1.70
2023-03-06T02:48:46.471Z,1.68
2023-03-06T02:49:46.465Z,1.71
2023-03-06T02:50:46.431Z,1.71
2023-03-06T02:51:46.430Z,1.71
2023-03-06T02:52:46.413Z,1.67
2023-03-06T02:53:46.420Z,1.70
2023-03-06T02:54:46.415Z,1.68
2023-03-06T02:55:46.404Z,1.68
2023-03-06T02:56:46.375Z,1.70
2023-03-06T02:57:46.387Z,1.70
2023-03-06T02:58:46.353Z,1.68
2023-03-06T02:59:46.352Z,1.68
2023-03-06T03:00:46.346Z,1.67
2023-03-06T03:01:46.372Z,1.68
2023-03-06T03:02:46.340Z,1.70
2023-03-06T03:03:46.311Z,1.70
2023-03-06T03:04:46.428Z,1.68
2023-03-06T03:05:46.292Z,1.68
2023-03-06T03:06:46.303Z,1.67
2023-03-06T03:07:46.272Z,1.70
2023-03-06T03:08:46.265Z,1.67
2023-03-06T03:09:46.249Z,1.67
2023-03-06T03:10:46.237Z,1.68
2023-03-06T03:11:46.234Z,1.65
2023-03-06T03:12:46.266Z,1.70
2023-03-06T03:13:46.201Z,1.68
2023-03-06T03:14:46.215Z,1.70
2023-03-06T03:15:46.207Z,1.72
2023-03-06T03:16:46.188Z,1.70
2023-03-06T03:17:46.168Z,1.70
2023-03-06T03:18:46.179Z,1.70
2023-03-06T03:19:46.141Z,1.68
2023-03-06T03:20:46.138Z,1.68
2023-03-06T03:21:46.128Z,1.68
2023-03-06T03:22:46.118Z,1.65
2023-03-06T03:23:46.195Z,1.64
2023-03-06T03:24:46.130Z,1.63
2023-03-06T03:25:46.100Z,1.61
2023-03-06T03:26:46.080Z,1.61
2023-03-06T03:27:46.069Z,1.64
2023-03-06T03:28:46.080Z,1.64
2023-03-06T03:29:46.068Z,1.64
2023-03-06T03:30:46.139Z,1.65
2023-03-06T03:31:46.049Z,1.67
2023-03-06T03:32:46.024Z,1.67
2023-03-06T03:33:46.010Z,1.67
2023-03-06T03:34:46.006Z,1.67
2023-03-06T03:35:46.020Z,1.70
2023-03-06T03:36:45.980Z,1.72
2023-03-06T03:37:45.972Z,1.72
2023-03-06T03:38:45.978Z,1.71
2023-03-06T03:39:45.977Z,1.70
2023-03-06T03:40:45.940Z,1.70
2023-03-06T03:41:45.946Z,1.71
2023-03-06T03:42:45.932Z,1.71
2023-03-06T03:43:45.913Z,1.68
2023-03-06T03:44:45.895Z,1.70
2023-03-06T03:45:45.909Z,1.71
2023-03-06T03:46:45.908Z,1.70
2023-03-06T03:47:45.870Z,1.71
2023-03-06T03:48:45.899Z,1.70
2023-03-06T03:49:45.862Z,1.74
2023-03-06T03:50:45.838Z,1.72
2023-03-06T03:51:45.830Z,1.72
2023-03-06T03:52:45.813Z,1.71
2023-03-06T03:53:45.836Z,1.74
2023-03-06T03:54:45.794Z,1.71
2023-03-06T03:55:46.983Z,1.72
2023-03-06T03:56:45.774Z,1.71
2023-03-06T03:57:45.763Z,1.72
2023-03-06T03:58:45.750Z,1.74
2023-03-06T03:59:45.758Z,1.74
2023-03-06T04:00:45.750Z,1.74
2023-03-06T04:01:45.737Z,1.71
2023-03-06T04:02:45.707Z,1.71
2023-03-06T04:03:45.711Z,1.71
2023-03-06T04:04:45.734Z,1.68
2023-03-06T04:05:45.679Z,1.71
2023-03-06T04:06:45.665Z,1.70
2023-03-06T04:07:45.660Z,1.70
2023-03-06T04:08:45.659Z,1.67
2023-03-06T04:09:45.638Z,1.67
2023-03-06T04:10:45.644Z,1.64
2023-03-06T04:11:45.634Z,1.65
2023-03-06T04:12:45.612Z,1.67
2023-03-06T04:13:45.596Z,1.65
2023-03-06T04:14:45.590Z,1.65
2023-03-06T04:15:45.608Z,1.67
2023-03-06T04:16:45.563Z,1.65
2023-03-06T04:17:45.578Z,1.65
2023-03-06T04:18:45.552Z,1.64
2023-03-06T04:19:45.541Z,1.67
2023-03-06T04:20:45.542Z,1.68
2023-03-06T04:21:45.540Z,1.67
2023-03-06T04:22:45.509Z,1.65
2023-03-06T04:23:45.504Z,1.68
2023-03-06T04:24:45.499Z,1.68
2023-03-06T04:25:45.473Z,1.68
2023-03-06T04:26:45.477Z,1.70
2023-03-06T04:27:45.482Z,1.71
2023-03-06T04:28:45.469Z,1.71
2023-03-06T04:29:45.453Z,1.72
2023-03-06T04:30:45.434Z,1.70
2023-03-06T04:31:45.520Z,1.71
2023-03-06T04:32:45.482Z,1.68
2023-03-06T04:33:45.403Z,1.68
2023-03-06T04:34:45.409Z,1.68
2023-03-06T04:35:45.416Z,1.67
2023-03-06T04:36:45.374Z,1.68
2023-03-06T04:37:45.359Z,1.68
2023-03-06T04:38:45.397Z,1.67
2023-03-06T04:39:45.344Z,1.67
2023-03-06T04:40:45.351Z,1.65
2023-03-06T04:41:45.365Z,1.65
2023-03-06T04:42:45.316Z,1.65
2023-03-06T04:43:45.301Z,1.65
2023-03-06T04:44:45.313Z,1.67
2023-03-06T04:45:45.303Z,1.67
2023-03-06T04:46:45.304Z,1.70
2023-03-06T04:47:45.288Z,1.70
2023-03-06T04:48:45.251Z,1.72
2023-03-06T04:49:45.240Z,1.74
2023-03-06T04:50:45.242Z,1.72
2023-03-06T04:51:45.222Z,1.70
2023-03-06T04:52:45.233Z,1.70
2023-03-06T04:53:45.216Z,1.70
2023-03-06T04:54:45.187Z,1.70
2023-03-06T04:55:45.182Z,1.68
2023-03-06T04:56:45.199Z,1.72
2023-03-06T04:57:45.155Z,1.71
2023-03-06T04:58:45.153Z,1.70
2023-03-06T04:59:45.154Z,1.68
2023-03-06T05:00:45.150Z,1.68
2023-03-06T05:01:45.120Z,1.67
2023-03-06T05:02:45.130Z,1.64
2023-03-06T05:03:45.101Z,1.64
2023-03-06T05:04:45.086Z,1.64
2023-03-06T05:05:45.090Z,1.64
2023-03-06T05:06:45.096Z,1.63
2023-03-06T05:07:45.072Z,1.64
2023-03-06T05:08:45.051Z,1.64
2023-03-06T05:09:45.066Z,1.64
2023-03-06T05:10:45.035Z,1.63
2023-03-06T05:11:45.029Z,1.63
2023-03-06T05:12:45.022Z,1.63
2023-03-06T05:13:44.996Z,1.61
2023-03-06T05:14:47.715Z,1.60
2023-03-06T05:15:45.049Z,1.60
2023-03-06T05:16:45.086Z,1.61
2023-03-06T05:17:44.967Z,1.60
2023-03-06T05:18:44.980Z,1.61
2023-03-06T05:19:44.940Z,1.61
2023-03-06T05:20:44.936Z,1.63
2023-03-06T05:21:44.916Z,1.63
2023-03-06T05:22:44.948Z,1.64
2023-03-06T05:23:44.913Z,1.65
2023-03-06T05:24:44.886Z,1.65
2023-03-06T05:25:44.878Z,1.67
2023-03-06T05:26:44.896Z,1.67
2023-03-06T05:27:44.876Z,1.65
2023-03-06T05:28:44.852Z,1.65
2023-03-06T05:29:44.855Z,1.65
2023-03-06T05:30:44.830Z,1.67
2023-03-06T05:31:44.854Z,1.65
2023-03-06T05:32:44.873Z,1.67
2023-03-06T05:33:44.797Z,1.67
2023-03-06T05:34:44.788Z,1.70
2023-03-06T05:35:44.866Z,1.67
2023-03-06T05:36:44.767Z,1.67
2023-03-06T05:37:44.765Z,1.70
2023-03-06T05:38:44.748Z,1.70
2023-03-06T05:39:44.747Z,1.71
2023-03-06T05:40:44.759Z,1.72
2023-03-06T05:41:44.709Z,1.72
2023-03-06T05:42:44.715Z,1.74
2023-03-06T05:43:44.647Z,1.71
2023-03-06T05:44:44.685Z,1.71
2023-03-06T05:45:44.673Z,1.72
2023-03-06T05:46:44.649Z,1.70
2023-03-06T05:47:44.655Z,1.72
2023-03-06T05:48:46.825Z,1.72
2023-03-06T05:49:44.605Z,1.72
2023-03-06T05:50:44.577Z,1.71
2023-03-06T05:51:44.579Z,1.71
2023-03-06T05:52:44.590Z,1.71
2023-03-06T05:53:44.578Z,1.72
2023-03-06T05:54:44.530Z,1.72
2023-03-06T05:55:44.538Z,1.72
2023-03-06T05:56:44.556Z,1.74
2023-03-06T05:57:44.501Z,1.74
2023-03-06T05:58:44.492Z,1.72
2023-03-06T05:59:46.313Z,1.71
2023-03-06T06:00:44.468Z,1.72
2023-03-06T06:01:44.459Z,1.72
2023-03-06T06:02:44.533Z,1.72
2023-03-06T06:03:44.521Z,1.70
2023-03-06T06:04:44.448Z,1.68
2023-03-06T06:05:44.430Z,1.68
2023-03-06T06:06:44.407Z,1.68
2023-03-06T06:07:44.410Z,1.68
2023-03-06T06:08:44.423Z,1.67
2023-03-06T06:09:44.382Z,1.65
2023-03-06T06:10:44.379Z,1.64
2023-03-06T06:11:44.367Z,1.61
2023-03-06T06:12:44.352Z,1.64
2023-03-06T06:13:44.337Z,1.63
2023-03-06T06:14:44.324Z,1.61
2023-03-06T06:15:44.441Z,1.57
2023-03-06T06:16:44.312Z,1.60
2023-03-06T06:17:44.320Z,1.60
2023-03-06T06:18:44.307Z,1.60
2023-03-06T06:19:44.278Z,1.61
2023-03-06T06:20:44.284Z,1.61
2023-03-06T06:21:44.260Z,1.60
2023-03-06T06:22:44.264Z,1.61
2023-03-06T06:23:44.255Z,1.61
2023-03-06T06:24:44.226Z,1.61
2023-03-06T06:25:44.233Z,1.61
2023-03-06T06:26:44.247Z,1.63
2023-03-06T06:27:44.217Z,1.63
2023-03-06T06:28:44.193Z,1.63
2023-03-06T06:29:44.182Z,1.60
2023-03-06T06:30:44.172Z,1.61
2023-03-06T06:31:44.157Z,1.63
2023-03-06T06:32:44.178Z,1.61
2023-03-06T06:33:44.142Z,1.61
2023-03-06T06:34:44.130Z,1.61
2023-03-06T06:35:44.158Z,1.61
2023-03-06T06:36:44.117Z,1.61
2023-03-06T06:37:44.112Z,1.63
2023-03-06T06:38:44.102Z,1.61
2023-03-06T06:39:44.092Z,1.60
2023-03-06T06:40:45.656Z,1.60
2023-03-06T06:41:57.298Z,1.60
2023-03-06T06:42:44.059Z,1.54
2023-03-06T06:43:44.058Z,1.56
2023-03-06T06:44:44.037Z,1.54
2023-03-06T06:45:44.040Z,1.53
2023-03-06T06:47:21.999Z,1.54
2023-03-06T06:47:44.134Z,1.54
2023-03-06T06:48:44.032Z,1.56
2023-03-06T06:49:44.004Z,1.56
2023-03-06T06:50:43.979Z,1.60
2023-03-06T06:51:43.968Z,1.60
2023-03-06T06:52:43.979Z,1.61
2023-03-06T06:53:43.947Z,1.61
2023-03-06T06:54:43.954Z,1.60
2023-03-06T06:55:43.969Z,1.60
2023-03-06T06:56:43.911Z,1.57
2023-03-06T06:57:43.952Z,1.63
2023-03-06T06:58:43.922Z,1.63
2023-03-06T06:59:43.884Z,1.61
2023-03-06T07:00:43.878Z,1.61
2023-03-06T07:01:43.939Z,1.57
2023-03-06T07:02:43.854Z,1.57
2023-03-06T07:03:43.955Z,1.56
2023-03-06T07:04:56.492Z,1.54
2023-03-06T07:05:43.829Z,1.54
2023-03-06T07:06:43.818Z,1.56
2023-03-06T07:07:43.800Z,1.57
2023-03-06T07:08:43.824Z,1.60
2023-03-06T07:09:43.782Z,1.60
2023-03-06T07:10:43.784Z,1.57
2023-03-06T07:11:43.837Z,1.60
2023-03-06T07:12:43.759Z,1.60
2023-03-06T07:13:43.746Z,1.57
2023-03-06T07:14:43.749Z,1.54
2023-03-06T07:15:43.762Z,1.56
2023-03-06T07:16:43.716Z,1.56
2023-03-06T07:17:43.713Z,1.56
2023-03-06T07:18:43.721Z,1.56
2023-03-06T07:19:43.688Z,1.54
2023-03-06T07:20:43.679Z,1.54
2023-03-06T07:21:43.669Z,1.54
2023-03-06T07:22:50.750Z,1.54
2023-03-06T07:23:43.668Z,1.56
2023-03-06T07:24:43.651Z,1.57
2023-03-06T07:25:43.633Z,1.54
2023-03-06T07:26:43.642Z,1.56
2023-03-06T07:27:47.008Z,1.56
2023-03-06T07:28:52.383Z,1.54
2023-03-06T07:29:43.604Z,1.54
2023-03-06T07:30:43.581Z,1.56
2023-03-06T07:31:43.570Z,1.54
2023-03-06T07:32:43.606Z,1.52
2023-03-06T07:33:43.548Z,1.52
2023-03-06T07:34:43.543Z,1.50
2023-03-06T07:35:43.562Z,1.52
2023-03-06T07:36:43.526Z,1.52
2023-03-06T07:37:43.532Z,1.52
2023-03-06T07:38:43.513Z,1.53
2023-03-06T07:39:43.510Z,1.53
2023-03-06T07:40:43.488Z,1.56
2023-03-06T07:41:43.469Z,1.56
2023-03-06T07:42:43.465Z,1.56
2023-03-06T07:43:43.450Z,1.57
2023-03-06T07:44:43.438Z,1.56
2023-03-06T07:45:43.450Z,1.57
2023-03-06T07:46:43.474Z,1.54
2023-03-06T07:47:43.411Z,1.56
2023-03-06T07:48:43.417Z,1.57
2023-03-06T07:49:43.402Z,1.56
2023-03-06T07:50:43.449Z,1.57
2023-03-06T07:51:43.376Z,1.54
2023-03-06T07:52:43.356Z,1.53
2023-03-06T07:53:43.350Z,1.52
2023-03-06T07:54:43.375Z,1.54
2023-03-06T07:55:43.336Z,1.53
2023-03-06T07:56:43.349Z,1.53
2023-03-06T07:57:43.311Z,1.54
2023-03-06T07:58:43.314Z,1.56
2023-03-06T07:59:43.286Z,1.60
2023-03-06T08:00:43.280Z,1.61
2023-03-06T08:01:43.265Z,1.60
2023-03-06T08:02:43.387Z,1.57
2023-03-06T08:03:43.387Z,1.56
2023-03-06T08:04:43.233Z,1.56
2023-03-06T08:05:43.232Z,1.56
2023-03-06T08:06:43.223Z,1.54
2023-03-06T08:07:43.207Z,1.54
2023-03-06T08:08:43.215Z,1.52
2023-03-06T08:09:43.205Z,1.52
2023-03-06T08:10:43.183Z,1.53
2023-03-06T08:11:43.164Z,1.54
2023-03-06T08:12:43.185Z,1.53
2023-03-06T08:13:43.155Z,1.53
2023-03-06T08:14:43.167Z,1.53
2023-03-06T08:15:43.128Z,1.54
2023-03-06T08:16:43.131Z,1.54
2023-03-06T08:17:43.106Z,1.54
2023-03-06T08:18:45.129Z,1.53
2023-03-06T08:19:43.091Z,1.57
2023-03-06T08:20:43.089Z,1.57
2023-03-06T08:21:43.070Z,1.57
2023-03-06T08:22:43.061Z,1.56
2023-03-06T08:23:43.070Z,1.56
2023-03-06T08:24:43.104Z,1.56
2023-03-06T08:25:43.024Z,1.57
2023-03-06T08:26:43.013Z,1.57
2023-03-06T08:27:43.016Z,1.56
2023-03-06T08:28:43.021Z,1.52
2023-03-06T08:29:42.985Z,1.52
2023-03-06T08:30:43.007Z,1.52
2023-03-06T08:31:43.057Z,1.50
2023-03-06T08:32:43.058Z,1.53
2023-03-06T08:33:42.946Z,1.53
2023-03-06T08:34:42.937Z,1.54
2023-03-06T08:35:42.971Z,1.54
2023-03-06T08:36:42.916Z,1.54
2023-03-06T08:37:42.982Z,1.56
2023-03-06T08:38:42.913Z,1.56
2023-03-06T08:39:42.890Z,1.56
2023-03-06T08:40:42.876Z,1.57
2023-03-06T08:41:42.876Z,1.57
2023-03-06T08:42:42.856Z,1.60
2023-03-06T08:43:42.876Z,1.60
2023-03-06T08:44:42.842Z,1.57
2023-03-06T08:45:42.832Z,1.56
2023-03-06T08:46:42.815Z,1.53
2023-03-06T08:47:42.801Z,1.53
2023-03-06T08:48:42.807Z,1.53
2023-03-06T08:49:42.805Z,1.52
2023-03-06T08:50:42.784Z,1.49
2023-03-06T08:51:42.763Z,1.49
2023-03-06T08:52:42.762Z,1.49
2023-03-06T08:53:44.148Z,1.49
2023-03-06T08:54:42.737Z,1.49
2023-03-06T08:55:42.743Z,1.47
2023-03-06T08:56:42.748Z,1.47
2023-03-06T08:57:42.701Z,1.47
2023-03-06T08:58:42.722Z,1.47
2023-03-06T08:59:42.685Z,1.47
2023-03-06T09:00:42.702Z,1.44
2023-03-06T09:01:42.692Z,1.43
2023-03-06T09:02:42.683Z,1.39
2023-03-06T09:03:42.655Z,1.39
2023-03-06T09:04:42.658Z,1.39
2023-03-06T09:05:42.637Z,1.38
2023-03-06T09:06:42.609Z,1.36
2023-03-06T09:07:42.619Z,1.35
2023-03-06T09:08:42.592Z,1.36
2023-03-06T09:09:42.615Z,1.36
2023-03-06T09:10:42.603Z,1.36
2023-03-06T09:11:42.563Z,1.34
2023-03-06T09:12:52.081Z,1.31
2023-03-06T09:13:42.538Z,1.28
2023-03-06T09:14:42.608Z,1.25
2023-03-06T09:15:42.545Z,1.20
2023-03-06T09:16:42.551Z,1.17
2023-03-06T09:17:42.639Z,1.16
2023-03-06T09:18:42.514Z,1.14
2023-03-06T09:19:42.490Z,1.11
2023-03-06T09:20:42.482Z,1.13
2023-03-06T09:21:42.480Z,1.11
2023-03-06T09:22:42.487Z,1.10
2023-03-06T09:23:42.447Z,1.06
2023-03-06T09:24:42.444Z,1.06
2023-03-06T09:25:42.431Z,1.06
2023-03-06T09:26:47.196Z,1.04
2023-03-06T09:27:42.450Z,1.04
2023-03-06T09:28:42.411Z,1.06
2023-03-06T09:29:42.389Z,1.06
2023-03-06T09:30:42.478Z,1.02
2023-03-06T09:31:42.372Z,1.02
2023-03-06T09:32:42.385Z,1.00
2023-03-06T09:33:42.437Z,1.04
2023-03-06T09:34:42.340Z,1.00
2023-03-06T09:35:42.359Z,1.00
2023-03-06T09:36:55.501Z,0.98
2023-03-06T09:37:42.318Z,0.99
2023-03-06T09:38:42.325Z,0.96
2023-03-06T09:39:42.300Z,0.99
2023-03-06T09:40:42.278Z,0.96
2023-03-06T09:41:42.281Z,0.98
2023-03-06T09:42:42.262Z,0.98
2023-03-06T09:43:42.260Z,1.00
2023-03-06T09:44:42.268Z,0.99
2023-03-06T09:45:42.289Z,1.04
2023-03-06T09:46:42.241Z,1.06
2023-03-06T09:47:42.220Z,1.06
2023-03-06T09:48:42.203Z,1.08
2023-03-06T09:49:42.190Z,1.08
2023-03-06T09:50:42.178Z,1.10
2023-03-06T09:51:42.186Z,1.13
2023-03-06T09:52:42.184Z,1.13
2023-03-06T09:53:42.151Z,1.16
2023-03-06T09:54:42.140Z,1.17
2023-03-06T09:55:42.136Z,1.17
2023-03-06T09:56:42.121Z,1.17
2023-03-06T09:57:42.127Z,1.17
2023-03-06T09:58:42.139Z,1.18
2023-03-06T09:59:42.099Z,1.20
2023-03-06T10:00:42.080Z,1.20
2023-03-06T10:01:42.076Z,1.21
2023-03-06T10:02:42.192Z,1.24
2023-03-06T10:03:42.057Z,1.24
2023-03-06T10:04:42.096Z,1.21
2023-03-06T10:05:42.196Z,1.20
2023-03-06T10:06:42.021Z,1.24
2023-03-06T10:07:42.009Z,1.26
2023-03-06T10:08:41.993Z,1.24
2023-03-06T10:09:41.996Z,1.26
2023-03-06T10:10:42.005Z,1.21
2023-03-06T10:11:41.966Z,1.21
2023-03-06T10:12:41.959Z,1.24
2023-03-06T10:13:41.965Z,1.24
2023-03-06T10:14:41.944Z,1.24
2023-03-06T10:15:41.962Z,1.21
2023-03-06T10:16:41.935Z,1.25
2023-03-06T10:17:41.920Z,1.25
2023-03-06T10:18:41.905Z,1.25
2023-03-06T10:19:41.892Z,1.28
2023-03-06T10:20:41.884Z,1.28
2023-03-06T10:21:41.895Z,1.28
2023-03-06T10:22:41.994Z,1.32
2023-03-06T10:23:41.850Z,1.32
2023-03-06T10:24:41.844Z,1.36
2023-03-06T10:25:41.835Z,1.39
2023-03-06T10:26:41.934Z,1.42
2023-03-06T10:27:41.829Z,1.38
2023-03-06T10:28:41.812Z,1.39
2023-03-06T10:29:43.656Z,1.38
2023-03-06T10:30:41.800Z,1.36
2023-03-06T10:31:41.773Z,1.35
2023-03-06T10:32:48.782Z,1.36
2023-03-06T10:33:41.761Z,1.35
2023-03-06T10:34:41.748Z,1.35
2023-03-06T10:35:41.780Z,1.36
2023-03-06T10:36:41.741Z,1.36
2023-03-06T10:37:41.716Z,1.36
2023-03-06T10:38:41.726Z,1.39
2023-03-06T10:39:41.721Z,1.39
2023-03-06T10:40:41.690Z,1.39
2023-03-06T10:41:41.680Z,1.38
2023-03-06T10:42:41.662Z,1.39
2023-03-06T10:43:41.693Z,1.42
2023-03-06T10:44:41.657Z,1.43
2023-03-06T10:45:48.946Z,1.43
2023-03-06T10:46:41.692Z,1.43
2023-03-06T10:47:41.611Z,1.42
2023-03-06T10:48:42.370Z,1.43
2023-03-06T10:49:41.606Z,1.44
2023-03-06T10:50:41.583Z,1.44
2023-03-06T10:51:41.587Z,1.44
2023-03-06T10:52:41.568Z,1.46
2023-03-06T10:53:41.576Z,1.47
2023-03-06T10:54:41.543Z,1.44
2023-03-06T10:55:41.536Z,1.44
2023-03-06T10:56:41.526Z,1.44
2023-03-06T10:57:41.514Z,1.43
2023-03-06T10:58:41.507Z,1.43
2023-03-06T10:59:41.515Z,1.42
2023-03-06T11:00:41.578Z,1.43
2023-03-06T11:01:41.523Z,1.46
2023-03-06T11:02:41.464Z,1.47
2023-03-06T11:03:41.456Z,1.47
2023-03-06T11:04:41.544Z,1.50
2023-03-06T11:05:41.431Z,1.52
2023-03-06T11:06:41.426Z,1.53
2023-03-06T11:07:41.413Z,1.54
2023-03-06T11:08:41.412Z,1.56
2023-03-06T11:09:41.392Z,1.57
2023-03-06T11:10:41.415Z,1.57
2023-03-06T11:11:41.373Z,1.61
2023-03-06T11:12:41.440Z,1.60
2023-03-06T11:13:41.355Z,1.61
2023-03-06T11:14:41.346Z,1.63
2023-03-06T11:15:41.438Z,1.64
2023-03-06T11:16:41.350Z,1.65
2023-03-06T11:17:41.322Z,1.67
2023-03-06T11:18:41.319Z,1.64
2023-03-06T11:19:41.300Z,1.65
2023-03-06T11:20:51.089Z,1.65
2023-03-06T11:21:41.281Z,1.67
2023-03-06T11:22:41.360Z,1.65
2023-03-06T11:23:41.268Z,1.67
2023-03-06T11:24:41.241Z,1.67
2023-03-06T11:25:41.260Z,1.65
2023-03-06T11:26:41.232Z,1.64
2023-03-06T11:27:41.217Z,1.64
2023-03-06T11:28:41.212Z,1.63
2023-03-06T11:29:41.241Z,1.60
2023-03-06T11:30:41.189Z,1.56
2023-03-06T11:31:41.247Z,1.53
2023-03-06T11:32:41.173Z,1.53
2023-03-06T11:33:41.163Z,1.52
2023-03-06T11:34:41.146Z,1.50
2023-03-06T11:35:41.178Z,1.52
2023-03-06T11:36:41.140Z,1.52
2023-03-06T11:37:41.141Z,1.50
2023-03-06T11:38:41.118Z,1.49
2023-03-06T11:39:41.100Z,1.46
2023-03-06T11:40:41.088Z,1.50
2023-03-06T11:41:41.075Z,1.50
2023-03-06T11:42:41.076Z,1.49
2023-03-06T11:43:41.063Z,1.49
2023-03-06T11:44:41.043Z,1.50
2023-03-06T11:45:41.033Z,1.50
2023-03-06T11:46:41.081Z,1.52
2023-03-06T11:47:41.034Z,1.52
2023-03-06T11:48:41.019Z,1.54
2023-03-06T11:49:40.999Z,1.56
2023-03-06T11:50:40.998Z,1.60
2023-03-06T11:51:40.980Z,1.63
2023-03-06T11:52:40.969Z,1.65
2023-03-06T11:53:40.953Z,1.68
2023-03-06T11:54:40.957Z,1.72
2023-03-06T11:55:40.934Z,1.75
2023-03-06T11:56:40.924Z,1.79
2023-03-06T11:57:40.922Z,1.82
2023-03-06T11:58:40.922Z,1.86
2023-03-06T11:59:40.892Z,1.86
2023-03-06T12:00:40.880Z,1.88
2023-03-06T12:01:40.951Z,1.90
2023-03-06T12:02:40.870Z,1.92
2023-03-06T12:03:40.878Z,1.98
2023-03-06T12:04:40.853Z,2.00
2023-03-06T12:05:40.930Z,2.01
2023-03-06T12:06:40.842Z,2.04
2023-03-06T12:07:40.813Z,2.08
2023-03-06T12:08:40.810Z,2.11
2023-03-06T12:09:40.804Z,2.15
2023-03-06T12:10:40.790Z,2.20
2023-03-06T12:11:40.785Z,2.22
2023-03-06T12:12:40.764Z,2.26
2023-03-06T12:13:40.748Z,2.29
2023-03-06T12:14:40.743Z,2.30
2023-03-06T12:15:40.732Z,2.32
2023-03-06T12:16:40.788Z,2.38
2023-03-06T12:17:40.720Z,2.41
2023-03-06T12:18:40.704Z,2.41
2023-03-06T12:19:40.692Z,2.38
2023-03-06T12:20:40.690Z,2.38
2023-03-06T12:21:40.689Z,2.38
2023-03-06T12:22:40.666Z,2.40
2023-03-06T12:23:40.659Z,2.40
2023-03-06T12:24:40.638Z,2.43
2023-03-06T12:25:40.624Z,2.44
2023-03-06T12:26:40.610Z,2.47
2023-03-06T12:27:40.628Z,2.50
2023-03-06T12:28:40.588Z,2.51
2023-03-06T12:29:40.585Z,2.50
2023-03-06T12:30:40.571Z,2.50
2023-03-06T12:31:40.627Z,2.50
2023-03-06T12:32:40.639Z,2.50
2023-03-06T12:33:40.554Z,2.51
2023-03-06T12:34:40.665Z,2.55
2023-03-06T12:35:40.543Z,2.53
2023-03-06T12:36:40.517Z,2.51
2023-03-06T12:37:40.507Z,2.50
2023-03-06T12:38:40.489Z,2.53
2023-03-06T12:39:40.493Z,2.53
2023-03-06T12:40:40.476Z,2.53
2023-03-06T12:41:40.478Z,2.53
2023-03-06T12:42:40.440Z,2.53
2023-03-06T12:43:40.438Z,2.51
2023-03-06T12:44:40.438Z,2.50
2023-03-06T12:45:40.461Z,2.48
2023-03-06T12:46:40.394Z,2.45
2023-03-06T12:47:40.407Z,2.41
2023-03-06T12:48:40.393Z,2.38
2023-03-06T12:49:40.374Z,2.33
2023-03-06T12:50:40.361Z,2.32
2023-03-06T12:51:40.380Z,2.26
2023-03-06T12:52:40.363Z,2.23
2023-03-06T12:53:40.336Z,2.15
2023-03-06T12:54:40.323Z,2.11
2023-03-06T12:55:40.307Z,2.05
2023-03-06T12:56:40.302Z,2.04
2023-03-06T12:57:40.301Z,1.95
2023-03-06T12:58:40.283Z,1.89
2023-03-06T12:59:40.269Z,1.81
2023-03-06T13:00:40.267Z,1.74
2023-03-06T13:01:40.345Z,1.71
2023-03-06T13:02:40.401Z,1.64
2023-03-06T13:03:40.258Z,1.63
2023-03-06T13:04:40.213Z,1.60
2023-03-06T13:05:40.212Z,1.54
2023-03-06T13:06:49.735Z,1.50
2023-03-06T13:07:40.215Z,1.47
2023-03-06T13:08:40.193Z,1.44
2023-03-06T13:09:40.175Z,1.43
2023-03-06T13:10:40.162Z,1.43
2023-03-06T13:11:40.158Z,1.38
2023-03-06T13:12:40.137Z,1.38
2023-03-06T13:13:40.145Z,1.35
2023-03-06T13:14:48.701Z,1.34
2023-03-06T13:15:40.130Z,1.35
2023-03-06T13:16:40.191Z,1.32
2023-03-06T13:17:40.102Z,1.31
2023-03-06T13:18:40.074Z,1.31